createdAt,value
2022-10-29T00:00:51.662Z,102207.91
2022-10-29T00:03:21.022Z,102197.47
2022-10-29T00:06:05.979Z,102193.09
2022-10-29T00:08:35.363Z,102192.19
2022-10-29T00:11:30.119Z,102183.44
2022-10-29T00:14:01.288Z,102192.13
2022-10-29T00:16:35.521Z,102199.94
2022-10-29T00:19:04.108Z,102200.72
2022-10-29T00:21:32.159Z,102203.34
2022-10-29T00:23:59.969Z,102207.63
2022-10-29T00:26:30.640Z,102197.13
2022-10-29T00:28:58.295Z,102198.84
2022-10-29T00:31:26.011Z,102193.59
2022-10-29T00:33:55.758Z,102176.19
2022-10-29T00:36:26.301Z,102183.16
2022-10-29T00:38:54.129Z,102187.50
2022-10-29T00:41:25.463Z,102186.59
2022-10-29T00:44:21.192Z,102179.63
2022-10-29T00:46:53.532Z,102183.06
2022-10-29T00:49:21.221Z,102170.91
2022-10-29T00:51:49.457Z,102171.75
2022-10-29T00:54:17.895Z,102166.50
2022-10-29T00:56:51.434Z,102173.44
2022-10-29T00:59:19.613Z,102176.00
2022-10-29T01:01:49.697Z,102185.59
2022-10-29T01:04:18.858Z,102168.19
2022-10-29T01:06:47.078Z,102166.44
2022-10-29T01:09:14.683Z,102163.81
2022-10-29T01:12:00.571Z,102176.88
2022-10-29T01:14:34.013Z,102170.75
2022-10-29T01:17:13.307Z,102167.25
2022-10-29T01:20:15.198Z,102165.47
2022-10-29T01:23:09.575Z,102150.66
2022-10-29T01:26:14.049Z,102148.88
2022-10-29T01:29:18.178Z,102140.19
2022-10-29T01:31:56.875Z,102147.13
2022-10-29T01:34:35.945Z,102143.66
2022-10-29T01:37:14.463Z,102134.16
2022-10-29T01:39:51.651Z,102127.19
2022-10-29T01:42:40.541Z,102135.88
2022-10-29T01:45:27.836Z,102135.00
2022-10-29T01:48:03.186Z,102128.94
2022-10-29T01:50:30.928Z,102121.94
2022-10-29T01:52:59.577Z,102125.41
2022-10-29T01:55:35.142Z,102134.09
2022-10-29T01:58:03.941Z,102128.03
2022-10-29T02:00:49.917Z,102116.72
2022-10-29T02:03:28.283Z,102115.81
2022-10-29T02:06:14.469Z,102120.97
2022-10-29T02:08:47.723Z,102116.56
2022-10-29T02:11:27.125Z,102123.47
2022-10-29T02:14:06.768Z,102112.97
2022-10-29T02:16:34.739Z,102108.66
2022-10-29T02:19:02.919Z,102098.19
2022-10-29T02:21:30.353Z,102103.44
2022-10-29T02:23:57.854Z,102102.59
2022-10-29T02:26:25.369Z,102114.75
2022-10-29T02:28:52.938Z,102106.88
2022-10-29T02:31:20.381Z,102113.84
2022-10-29T02:33:47.826Z,102112.09
2022-10-29T02:36:15.278Z,102108.59
2022-10-29T02:38:42.749Z,102115.56
2022-10-29T02:41:10.200Z,102049.25
2022-10-29T02:43:37.679Z,102098.25
2022-10-29T02:46:20.401Z,102097.41
2022-10-29T02:48:48.507Z,102092.22
2022-10-29T02:51:17.465Z,102079.19
2022-10-29T02:53:45.328Z,102087.06
2022-10-29T02:56:13.067Z,102076.66
2022-10-29T02:58:40.592Z,102081.88
2022-10-29T03:01:08.051Z,102061.88
2022-10-29T03:03:35.913Z,102065.41
2022-10-29T03:06:03.397Z,102078.44
2022-10-29T03:08:30.888Z,102077.56
2022-10-29T03:10:58.425Z,102080.16
2022-10-29T03:13:25.904Z,102076.72
2022-10-29T03:15:53.375Z,102083.69
2022-10-29T03:18:20.845Z,102082.81
2022-10-29T03:20:48.490Z,102078.47
2022-10-29T03:23:16.104Z,102082.84
2022-10-29T03:25:43.905Z,102075.00
2022-10-29T03:28:11.686Z,102087.16
2022-10-29T03:30:39.126Z,102083.72
2022-10-29T03:33:06.573Z,102085.47
2022-10-29T03:35:34.081Z,102094.13
2022-10-29T03:38:01.588Z,102088.88
2022-10-29T03:40:29.100Z,102087.16
2022-10-29T03:42:56.861Z,102081.94
2022-10-29T03:45:24.640Z,102084.53
2022-10-29T03:47:52.153Z,102082.78
2022-10-29T03:50:19.892Z,102071.47
2022-10-29T03:52:47.332Z,102067.09
2022-10-29T03:55:14.877Z,102059.28
2022-10-29T03:57:42.393Z,102075.78
2022-10-29T04:00:11.028Z,102062.72
2022-10-29T04:02:38.565Z,102069.72
2022-10-29T04:05:06.747Z,102069.72
2022-10-29T04:07:34.189Z,102060.13
2022-10-29T04:10:01.662Z,102064.53
2022-10-29T04:12:29.130Z,102064.56
2022-10-29T04:14:56.623Z,102064.56
2022-10-29T04:17:24.135Z,102064.56
2022-10-29T04:19:51.591Z,102062.88
2022-10-29T04:30:45.339Z,102067.22
2022-10-29T04:33:12.842Z,102052.44
2022-10-29T04:35:40.291Z,102061.16
2022-10-29T04:38:12.243Z,102053.38
2022-10-29T04:40:39.794Z,102049.03
2022-10-29T04:43:07.286Z,102035.09
2022-10-29T04:45:34.918Z,102041.22
2022-10-29T04:48:04.089Z,102049.91
2022-10-29T04:50:32.969Z,102048.19
2022-10-29T04:53:02.052Z,102042.13
2022-10-29T04:55:30.201Z,102047.34
2022-10-29T04:57:58.469Z,102040.34
2022-10-29T05:00:26.474Z,102047.34
2022-10-29T05:02:54.551Z,102043.00
2022-10-29T05:05:22.951Z,102037.75
2022-10-29T05:07:50.432Z,102039.47
2022-10-29T05:10:17.938Z,102032.53
2022-10-29T05:12:45.423Z,102033.44
2022-10-29T05:15:12.862Z,102024.75
2022-10-29T05:17:40.313Z,102019.53
2022-10-29T05:20:08.243Z,102017.81
2022-10-29T05:22:35.682Z,102002.16
2022-10-29T05:25:03.151Z,102010.91
2022-10-29T05:27:31.106Z,102007.41
2022-10-29T05:29:58.705Z,102003.94
2022-10-29T05:32:26.289Z,102010.94
2022-10-29T05:34:53.780Z,101999.69
2022-10-29T05:37:21.224Z,101997.94
2022-10-29T05:39:48.685Z,102005.78
2022-10-29T05:42:16.116Z,102010.16
2022-10-29T05:44:43.595Z,102004.09
2022-10-29T05:47:11.467Z,102007.59
2022-10-29T05:49:38.957Z,102010.22
2022-10-29T05:52:06.424Z,102008.50
2022-10-29T05:54:33.921Z,102005.91
2022-10-29T05:57:01.393Z,102002.47
2022-10-29T05:59:32.683Z,101999.00
2022-10-29T06:02:01.423Z,102000.75
2022-10-29T06:04:28.984Z,102004.25
2022-10-29T06:06:56.536Z,102005.16
2022-10-29T06:09:24.059Z,102010.38
2022-10-29T06:11:51.560Z,102017.38
2022-10-29T06:14:19.076Z,102029.56
2022-10-29T06:16:46.581Z,102007.78
2022-10-29T06:19:14.129Z,102007.81
2022-10-29T06:21:41.715Z,102007.81
2022-10-29T06:24:10.628Z,102005.22
2022-10-29T06:26:38.345Z,102009.59
2022-10-29T06:29:05.807Z,101999.16
2022-10-29T06:31:33.291Z,102008.72
2022-10-29T06:34:01.863Z,102002.63
2022-10-29T06:36:29.330Z,101993.94
2022-10-29T06:38:56.805Z,101993.94
2022-10-29T06:41:27.105Z,101993.97
2022-10-29T06:43:54.679Z,101994.84
2022-10-29T06:46:22.210Z,101992.25
2022-10-29T06:48:49.673Z,101990.50
2022-10-29T06:51:17.227Z,101984.41
2022-10-29T06:53:44.828Z,101974.84
2022-10-29T06:56:12.297Z,101963.53
2022-10-29T06:58:39.766Z,101973.13
2022-10-29T07:01:07.239Z,101972.25
2022-10-29T07:03:34.695Z,101971.38
2022-10-29T07:06:02.156Z,101968.78
2022-10-29T07:08:30.550Z,101973.16
2022-10-29T07:10:58.049Z,101967.06
2022-10-29T07:13:25.499Z,101972.31
2022-10-29T07:15:53.171Z,101978.41
2022-10-29T07:18:20.653Z,101971.44
2022-10-29T07:20:48.220Z,101973.19
2022-10-29T07:23:15.727Z,101971.47
2022-10-29T07:25:43.507Z,101968.84
2022-10-29T07:28:13.692Z,101972.34
2022-10-29T07:30:42.022Z,101971.50
2022-10-29T07:33:09.676Z,101964.53
2022-10-29T07:35:37.705Z,101964.50
2022-10-29T07:38:10.802Z,101974.09
2022-10-29T07:40:40.445Z,101979.31
2022-10-29T07:43:08.364Z,101966.25
2022-10-29T07:45:35.843Z,101968.00
2022-10-29T07:48:07.413Z,101959.22
2022-10-29T07:50:35.207Z,101975.78
2022-10-29T07:53:03.566Z,101973.13
2022-10-29T07:55:31.629Z,101959.13
2022-10-29T07:58:01.391Z,101964.31
2022-10-29T08:00:37.982Z,101957.28
2022-10-29T08:03:06.805Z,101953.75
2022-10-29T08:05:34.633Z,101945.91
2022-10-29T08:08:02.199Z,101955.47
2022-10-29T08:10:31.744Z,101938.91
2022-10-29T08:13:02.195Z,101936.25
2022-10-29T08:15:32.438Z,101941.44
2022-10-29T08:18:00.471Z,101937.00
2022-10-29T08:20:29.923Z,101934.38
2022-10-29T08:23:00.787Z,101943.00
2022-10-29T08:25:28.635Z,101953.44
2022-10-29T08:28:00.583Z,101949.81
2022-10-29T08:30:28.405Z,101941.03
2022-10-29T08:32:56.255Z,101949.63
2022-10-29T08:35:23.933Z,101949.56
2022-10-29T08:37:51.664Z,101938.06
2022-10-29T08:40:30.065Z,101947.56
2022-10-29T08:43:19.225Z,101929.88
2022-10-29T08:45:50.778Z,101916.78
2022-10-29T08:48:35.208Z,101927.06
2022-10-29T08:51:14.097Z,101930.53
2022-10-29T08:53:54.460Z,101947.81
2022-10-29T08:56:40.739Z,101953.06
2022-10-29T08:59:12.691Z,101942.41
2022-10-29T09:01:40.525Z,101934.53
2022-10-29T09:04:17.608Z,101934.53
2022-10-29T09:07:05.312Z,101926.56
2022-10-29T09:09:42.936Z,101928.31
2022-10-29T09:12:45.635Z,101917.88
2022-10-29T09:15:26.031Z,101905.59
2022-10-29T09:18:15.889Z,101902.97
2022-10-29T09:20:56.288Z,101890.66
2022-10-29T09:23:47.933Z,101885.34
2022-10-29T09:26:27.244Z,101878.31
2022-10-29T09:29:07.702Z,101885.13
2022-10-29T09:31:50.924Z,101888.53
2022-10-29T09:34:29.418Z,101884.13
2022-10-29T09:36:57.751Z,101883.16
2022-10-29T09:39:38.881Z,101882.22
2022-10-29T09:42:13.433Z,101874.28
2022-10-29T09:44:59.927Z,101871.47
2022-10-29T09:47:44.272Z,101853.09
2022-10-29T09:50:15.519Z,101854.81
2022-10-29T09:52:45.315Z,101847.69
2022-10-29T09:55:21.632Z,101816.31
2022-10-29T09:57:49.707Z,101819.81
2022-10-29T10:00:24.747Z,101825.66
2022-10-29T10:03:04.886Z,101828.16
2022-10-29T10:05:34.670Z,101820.97
2022-10-29T10:08:15.711Z,101831.16
2022-10-29T10:10:56.437Z,101821.44
2022-10-29T10:13:35.675Z,101820.09
2022-10-29T10:16:05.857Z,101824.84
2022-10-29T10:18:33.477Z,101828.03
2022-10-29T10:21:08.153Z,101825.97
2022-10-29T10:23:48.312Z,101830.94
2022-10-29T10:26:38.723Z,101818.31
2022-10-29T10:29:06.223Z,101819.03
2022-10-29T10:31:33.659Z,101816.72
2022-10-29T10:34:10.274Z,101806.44
2022-10-29T10:36:42.118Z,101802.81
2022-10-29T10:39:22.097Z,101790.41
2022-10-29T10:41:51.683Z,101797.34
2022-10-29T10:44:21.889Z,101788.38
2022-10-29T10:46:52.667Z,101777.19
2022-10-29T10:49:32.790Z,101771.50
2022-10-29T10:52:03.853Z,101761.22
2022-10-29T10:54:38.069Z,101771.44
2022-10-29T10:57:20.092Z,101767.81
2022-10-29T11:00:00.378Z,101770.25
2022-10-29T11:02:38.897Z,101760.44
2022-10-29T11:05:21.419Z,101769.38
2022-10-29T11:07:56.365Z,101776.63
2022-10-29T11:10:33.408Z,101776.28
2022-10-29T11:13:06.062Z,101784.34
2022-10-29T11:15:46.941Z,101777.06
2022-10-29T11:18:20.102Z,101778.97
2022-10-29T11:21:26.026Z,101791.34
2022-10-29T11:24:23.789Z,101786.13
2022-10-29T11:27:13.206Z,101775.31
2022-10-29T11:29:58.099Z,101756.16
2022-10-29T11:32:49.219Z,101752.28
2022-10-29T11:35:38.921Z,101752.47
2022-10-29T11:38:32.564Z,101754.81
2022-10-29T11:41:05.889Z,101738.81
2022-10-29T11:43:33.796Z,101743.09
2022-10-29T11:46:11.639Z,101741.88
2022-10-29T11:48:57.672Z,101742.72
2022-10-29T11:51:36.454Z,101742.25
2022-10-29T11:54:22.516Z,101726.13
2022-10-29T11:57:05.024Z,101721.38
2022-10-29T11:59:32.558Z,101716.41
2022-10-29T12:02:35.341Z,101711.00
2022-10-29T12:05:31.883Z,101705.31
2022-10-29T12:08:19.428Z,101715.31
2022-10-29T12:10:46.819Z,101710.75
2022-10-29T12:13:22.943Z,101700.78
2022-10-29T12:16:32.370Z,101714.66
2022-10-29T12:19:22.642Z,101703.25
2022-10-29T12:22:14.334Z,101706.75
2022-10-29T12:25:05.261Z,101703.72
2022-10-29T12:27:40.095Z,101703.75
2022-10-29T12:30:12.856Z,101706.38
2022-10-29T12:32:49.670Z,101690.63
2022-10-29T12:35:30.087Z,101692.59
2022-10-29T12:38:15.953Z,101692.84
2022-10-29T12:40:45.828Z,101686.47
2022-10-29T12:43:40.834Z,101681.13
2022-10-29T12:46:32.571Z,101689.50
2022-10-29T12:49:25.910Z,101678.16
2022-10-29T12:52:06.062Z,101678.31
2022-10-29T12:54:36.318Z,101672.25
2022-10-29T12:57:15.660Z,101674.34
2022-10-29T12:59:44.471Z,101663.53
2022-10-29T13:02:44.990Z,101662.25
2022-10-29T13:05:13.908Z,101653.91
2022-10-29T13:07:47.592Z,101667.69
2022-10-29T13:10:24.523Z,101661.97
2022-10-29T13:13:05.445Z,101656.47
2022-10-29T13:15:37.983Z,101658.84
2022-10-29T13:18:43.073Z,101654.53
2022-10-29T13:21:10.751Z,101648.19
2022-10-29T13:23:41.224Z,101644.06
2022-10-29T13:26:09.880Z,101642.28
2022-10-29T13:28:37.307Z,101634.59
2022-10-29T13:31:04.780Z,101633.69
2022-10-29T13:33:32.216Z,101626.13
2022-10-29T13:36:18.888Z,101618.25
2022-10-29T13:38:58.696Z,101626.88
2022-10-29T13:41:43.724Z,101627.28
2022-10-29T13:44:18.494Z,101623.56
2022-10-29T13:46:48.949Z,101622.63
2022-10-29T13:49:21.454Z,101621.84
2022-10-29T13:51:54.609Z,101614.41
2022-10-29T13:54:40.992Z,101614.34
2022-10-29T13:57:14.653Z,101607.50
2022-10-29T13:59:46.555Z,101605.78
2022-10-29T14:02:36.786Z,101613.41
2022-10-29T14:05:20.091Z,101606.19
2022-10-29T14:08:05.613Z,101609.34
2022-10-29T14:10:46.053Z,101609.72
2022-10-29T14:13:32.165Z,101607.53
2022-10-29T14:16:04.158Z,101612.13
2022-10-29T14:18:38.769Z,101618.56
2022-10-29T14:21:30.529Z,101613.63
2022-10-29T14:24:02.081Z,101615.47
2022-10-29T14:26:31.364Z,101613.53
2022-10-29T14:29:14.753Z,101616.38
2022-10-29T14:31:42.269Z,101612.81
2022-10-29T14:34:24.604Z,101613.75
2022-10-29T14:36:57.784Z,101612.00
2022-10-29T14:39:48.544Z,101605.41
2022-10-29T14:42:49.632Z,101607.88
2022-10-29T14:45:32.189Z,101609.59
2022-10-29T14:48:05.317Z,101600.97
2022-10-29T14:50:32.932Z,101598.44
2022-10-29T14:53:03.461Z,101594.31
2022-10-29T14:55:42.019Z,101608.66
2022-10-29T14:58:12.655Z,101604.69
2022-10-29T15:00:50.650Z,101594.41
2022-10-29T15:03:23.067Z,101602.44
2022-10-29T15:05:51.141Z,101598.38
2022-10-29T15:08:29.169Z,101602.81
2022-10-29T15:10:58.950Z,101601.25
2022-10-29T15:13:29.584Z,101601.47
2022-10-29T15:16:07.625Z,101591.19
2022-10-29T15:18:36.676Z,101580.81
2022-10-29T15:21:05.827Z,101572.38
2022-10-29T15:23:42.169Z,101579.50
2022-10-29T15:26:20.512Z,101582.28
2022-10-29T15:28:51.394Z,101570.00
2022-10-29T15:31:41.335Z,101556.09
2022-10-29T15:34:11.099Z,101565.91
2022-10-29T15:36:57.677Z,101534.94
2022-10-29T15:39:27.764Z,101559.09
2022-10-29T15:41:59.019Z,101555.75
2022-10-29T15:44:35.968Z,101566.31
2022-10-29T15:47:19.745Z,101554.91
2022-10-29T15:49:47.233Z,101554.22
2022-10-29T15:52:19.857Z,101546.41
2022-10-29T15:54:48.476Z,101538.69
2022-10-29T15:57:16.511Z,101539.66
2022-10-29T15:59:44.126Z,101537.16
2022-10-29T16:02:13.544Z,101546.00
2022-10-29T16:04:41.967Z,101533.75
2022-10-29T16:07:17.480Z,101529.47
2022-10-29T16:09:49.265Z,101530.41
2022-10-29T16:12:17.005Z,101523.50
2022-10-29T16:14:46.549Z,101519.97
2022-10-29T16:17:22.005Z,101517.44
2022-10-29T16:19:50.584Z,101527.28
2022-10-29T16:22:29.911Z,101509.91
2022-10-29T16:24:58.043Z,101507.44
2022-10-29T16:27:28.789Z,101506.75
2022-10-29T16:29:56.277Z,101513.19
2022-10-29T16:32:25.396Z,101508.84
2022-10-29T16:34:53.292Z,101512.56
2022-10-29T16:37:21.722Z,101512.66
2022-10-29T16:39:49.203Z,101513.66
2022-10-29T16:42:35.156Z,101507.66
2022-10-29T16:45:03.224Z,101512.19
2022-10-29T16:47:30.947Z,101514.16
2022-10-29T16:49:58.604Z,101503.81
2022-10-29T16:52:29.420Z,101504.97
2022-10-29T16:54:57.519Z,101512.03
2022-10-29T16:57:29.317Z,101508.69
2022-10-29T16:59:56.773Z,101499.94
2022-10-29T17:02:24.395Z,101500.94
2022-10-29T17:04:51.866Z,101496.66
2022-10-29T17:07:20.339Z,101499.41
2022-10-29T17:09:47.987Z,101511.72
2022-10-29T17:12:15.580Z,101511.84
2022-10-29T17:14:43.053Z,101512.78
2022-10-29T17:17:10.609Z,101514.63
2022-10-29T17:19:38.169Z,101517.28
2022-10-29T17:22:05.719Z,101515.41
2022-10-29T17:24:33.269Z,101516.41
2022-10-29T17:27:00.824Z,101518.31
2022-10-29T17:29:32.465Z,101514.84
2022-10-29T17:34:31.124Z,101514.09
2022-10-29T17:36:58.780Z,101515.09
2022-10-29T17:39:26.345Z,101524.84
2022-10-29T17:41:53.941Z,101520.59
2022-10-29T17:44:21.570Z,101525.84
2022-10-29T17:46:49.130Z,101503.53
2022-10-29T17:49:16.626Z,101528.72
2022-10-29T17:51:44.134Z,101533.22
2022-10-29T17:54:18.217Z,101543.97
2022-10-29T17:56:45.719Z,101563.34
2022-10-29T17:59:13.319Z,101556.91
2022-10-29T18:01:40.865Z,101577.81
2022-10-29T18:04:08.445Z,101580.41
2022-10-29T18:06:35.925Z,101575.94
2022-10-29T18:09:03.671Z,101578.53
2022-10-29T18:11:31.451Z,101542.25
2022-10-29T18:14:00.261Z,101569.03
2022-10-29T18:16:29.805Z,101574.31
2022-10-29T18:19:02.835Z,101575.28
2022-10-29T18:21:31.607Z,101572.84
2022-10-29T18:23:59.477Z,101572.88
2022-10-29T18:26:30.672Z,101579.09
2022-10-29T18:29:00.993Z,101582.69
2022-10-29T18:31:32.223Z,101589.75
2022-10-29T18:34:01.658Z,101581.13
2022-10-29T18:36:29.469Z,101579.44
2022-10-29T18:38:59.915Z,101587.38
2022-10-29T18:41:27.507Z,101576.16
2022-10-29T18:43:55.391Z,101576.31
2022-10-29T18:46:22.933Z,101577.34
2022-10-29T18:48:50.798Z,101573.13
2022-10-29T18:51:24.666Z,101571.50
2022-10-29T18:53:53.184Z,101559.47
2022-10-29T18:56:22.177Z,101564.88
2022-10-29T18:58:50.256Z,101559.78
2022-10-29T19:01:23.432Z,101561.53
2022-10-29T19:03:52.851Z,101566.94
2022-10-29T19:06:21.379Z,101560.91
2022-10-29T19:08:49.477Z,101561.94
2022-10-29T19:11:20.437Z,101572.50
2022-10-29T19:14:01.514Z,101565.56
2022-10-29T19:16:31.403Z,101571.75
2022-10-29T19:21:39.401Z,101571.88
2022-10-29T19:24:08.248Z,101576.34
2022-10-29T19:26:37.044Z,101568.53
2022-10-29T19:29:07.888Z,101571.25
2022-10-29T19:31:37.503Z,101562.56
2022-10-29T19:34:07.299Z,101571.31
2022-10-29T19:36:37.367Z,101575.75
2022-10-29T19:39:05.593Z,101567.88
2022-10-29T19:41:33.638Z,101573.94
2022-10-29T19:44:02.428Z,101579.16
2022-10-29T19:46:30.090Z,101571.22
2022-10-29T19:48:58.820Z,101578.03
2022-10-29T19:51:26.413Z,101584.94
2022-10-29T19:53:53.922Z,101588.28
2022-10-29T19:56:21.891Z,101591.69
2022-10-29T19:58:49.706Z,101592.28
2022-10-29T20:01:18.998Z,101584.25
2022-10-29T20:03:47.433Z,101582.47
2022-10-29T20:06:16.418Z,101587.69
2022-10-29T20:08:44.181Z,101587.66
2022-10-29T20:11:11.879Z,101581.59
2022-10-29T20:13:40.038Z,101598.31
2022-10-29T20:16:09.352Z,101593.03
2022-10-29T20:18:38.140Z,101593.03
2022-10-29T20:23:33.781Z,101590.50
2022-10-29T20:26:01.225Z,101601.88
2022-10-29T20:28:28.747Z,101589.72
2022-10-29T20:31:29.990Z,101601.16
2022-10-29T20:34:00.202Z,101602.09
2022-10-29T20:36:33.394Z,101593.50
2022-10-29T20:39:01.396Z,101593.50
2022-10-29T20:41:29.572Z,101592.66
2022-10-29T20:44:00.036Z,101594.50
2022-10-29T20:46:28.146Z,101593.72
2022-10-29T20:48:57.297Z,101595.50
2022-10-29T20:51:25.202Z,101591.13
2022-10-29T20:53:53.547Z,101597.28
2022-10-29T20:56:22.932Z,101600.84
2022-10-29T20:58:51.985Z,101598.28
2022-10-29T21:01:21.972Z,101607.84
2022-10-29T21:03:50.304Z,101607.91
2022-10-29T21:06:18.319Z,101615.88
2022-10-29T21:08:47.384Z,101613.31
2022-10-29T21:11:16.304Z,101607.19
2022-10-29T21:13:44.043Z,101618.72
2022-10-29T21:16:20.858Z,101623.13
2022-10-29T21:18:51.112Z,101618.75
2022-10-29T21:21:19.758Z,101617.00
2022-10-29T21:23:47.326Z,101622.16
2022-10-29T21:26:17.646Z,101639.59
2022-10-29T21:28:45.921Z,101621.28
2022-10-29T21:31:13.492Z,101623.03
2022-10-29T21:33:41.005Z,101617.78
2022-10-29T21:36:08.825Z,101612.63
2022-10-29T21:38:36.304Z,101618.84
2022-10-29T21:41:04.012Z,101625.88
2022-10-29T21:43:31.643Z,101617.16
2022-10-29T21:45:59.355Z,101623.34
2022-10-29T21:48:28.535Z,101620.81
2022-10-29T21:51:09.141Z,101622.56
2022-10-29T21:53:36.816Z,101627.78
2022-10-29T21:56:06.803Z,101629.63
2022-10-29T21:58:34.945Z,101622.75
2022-10-29T22:01:20.497Z,101639.38
2022-10-29T22:03:48.754Z,101635.09
2022-10-29T22:06:21.735Z,101638.53
2022-10-29T22:08:54.812Z,101633.41
2022-10-29T22:11:22.567Z,101643.91
2022-10-29T22:13:50.456Z,101649.16
2022-10-29T22:16:19.137Z,101638.59
2022-10-29T22:18:47.239Z,101633.38
2022-10-29T22:21:20.934Z,101635.91
2022-10-29T22:23:54.008Z,101639.41
2022-10-29T22:26:24.322Z,101629.84
2022-10-29T22:28:51.932Z,101643.03
2022-10-29T22:31:21.477Z,101657.94
2022-10-29T22:33:49.568Z,101645.78
2022-10-29T22:36:24.989Z,101651.91
2022-10-29T22:39:00.577Z,101654.53
2022-10-29T22:41:28.814Z,101649.28
2022-10-29T22:43:58.806Z,101646.69
2022-10-29T22:46:27.602Z,101651.91
2022-10-29T22:48:55.177Z,101651.13
2022-10-29T22:51:25.364Z,101645.94
2022-10-29T22:53:54.425Z,101647.66
2022-10-29T22:56:27.291Z,101656.44
2022-10-29T22:58:55.431Z,101653.00
2022-10-29T23:01:26.004Z,101654.75
2022-10-29T23:03:54.419Z,101656.53
2022-10-29T23:06:24.231Z,101660.91
2022-10-29T23:08:53.955Z,101656.56
2022-10-29T23:11:22.949Z,101650.50
2022-10-29T23:13:53.842Z,101651.41
2022-10-29T23:16:22.323Z,101656.66
2022-10-29T23:18:51.053Z,101662.75
2022-10-29T23:21:19.444Z,101655.00
2022-10-29T23:23:47.274Z,101661.97
2022-10-29T23:26:15.314Z,101661.97
2022-10-29T23:28:43.485Z,101655.03
2022-10-29T23:31:13.836Z,101656.78
2022-10-29T23:33:48.573Z,101653.31
2022-10-29T23:36:17.574Z,101655.06
2022-10-29T23:38:45.534Z,101666.44
2022-10-29T23:41:13.377Z,101667.31
2022-10-29T23:43:41.037Z,101672.56
2022-10-29T23:46:08.743Z,101670.84
2022-10-29T23:48:36.228Z,101674.31
2022-10-29T23:51:03.695Z,101670.84
2022-10-29T23:53:31.213Z,101674.28
2022-10-29T23:55:58.736Z,101665.53
2022-10-29T23:58:26.316Z,101663.81
